createdAt,value
2023-03-26T00:00:54.271Z,10.91
2023-03-26T00:03:57.952Z,11.08
2023-03-26T00:07:00.160Z,11.01
2023-03-26T00:10:02.149Z,10.83
2023-03-26T00:13:04.653Z,10.96
2023-03-26T00:16:06.880Z,10.51
2023-03-26T00:19:09.108Z,11.06
2023-03-26T00:22:13.625Z,11.18
2023-03-26T00:25:15.975Z,10.97
2023-03-26T00:28:21.489Z,10.93
2023-03-26T00:31:23.418Z,11.15
2023-03-26T00:34:26.659Z,11.13
2023-03-26T00:37:28.588Z,10.60
2023-03-26T00:40:32.103Z,11.29
2023-03-26T00:43:34.816Z,10.78
2023-03-26T00:46:37.095Z,10.93
2023-03-26T00:49:39.540Z,11.03
2023-03-26T00:52:42.927Z,11.30
2023-03-26T00:55:45.803Z,11.88
2023-03-26T00:58:50.255Z,11.02
2023-03-26T01:01:55.023Z,11.62
2023-03-26T01:04:57.968Z,11.29
2023-03-26T01:08:15.078Z,11.72
2023-03-26T01:11:16.937Z,11.06
2023-03-26T01:14:20.466Z,11.15
2023-03-26T01:17:22.466Z,10.92
2023-03-26T01:20:26.919Z,11.80
2023-03-26T01:23:30.880Z,11.34
2023-03-26T01:26:36.514Z,11.44
2023-03-26T01:29:39.345Z,10.92
2023-03-26T01:32:47.583Z,10.82
2023-03-26T01:35:52.640Z,11.37
2023-03-26T01:39:27.380Z,11.37
2023-03-26T01:42:47.982Z,11.38
2023-03-26T01:45:49.920Z,11.89
2023-03-26T01:48:52.070Z,11.30
2023-03-26T01:51:55.641Z,11.13
2023-03-26T01:54:57.697Z,11.09
2023-03-26T01:58:09.208Z,11.21
2023-03-26T02:01:12.881Z,11.08
2023-03-26T02:04:37.865Z,10.64
2023-03-26T02:07:39.675Z,10.64
2023-03-26T02:10:42.524Z,11.00
2023-03-26T02:13:45.054Z,10.35
2023-03-26T02:16:47.956Z,10.82
2023-03-26T02:19:50.128Z,10.92
2023-03-26T02:22:52.032Z,10.96
2023-03-26T02:25:54.076Z,10.33
2023-03-26T02:28:56.826Z,10.41
2023-03-26T02:31:58.766Z,10.56
2023-03-26T02:35:00.907Z,10.40
2023-03-26T02:38:02.895Z,10.40
2023-03-26T02:41:05.005Z,10.46
2023-03-26T02:44:06.955Z,10.52
2023-03-26T02:47:08.830Z,9.99
2023-03-26T02:50:12.035Z,10.34
2023-03-26T02:53:14.030Z,10.16
2023-03-26T02:56:15.978Z,9.96
2023-03-26T02:59:17.915Z,10.57
2023-03-26T03:02:20.289Z,10.32
2023-03-26T03:05:26.725Z,10.61
2023-03-26T03:08:29.328Z,10.75
2023-03-26T03:11:31.459Z,10.97
2023-03-26T03:14:33.305Z,10.52
2023-03-26T03:17:35.493Z,10.37
2023-03-26T03:20:37.825Z,11.33
2023-03-26T03:23:39.675Z,11.27
2023-03-26T03:26:42.482Z,11.08
2023-03-26T03:29:44.387Z,11.52
2023-03-26T03:32:46.249Z,12.13
2023-03-26T03:35:49.637Z,11.98
2023-03-26T03:38:51.588Z,11.04
2023-03-26T03:41:53.817Z,12.18
2023-03-26T03:44:55.844Z,12.28
2023-03-26T03:47:57.693Z,12.14
2023-03-26T03:50:59.560Z,11.50
2023-03-26T03:54:01.478Z,11.83
2023-03-26T03:57:03.565Z,10.73
2023-03-26T04:00:09.002Z,11.21
2023-03-26T04:03:14.407Z,12.30
2023-03-26T04:06:19.005Z,12.44
2023-03-26T04:09:21.097Z,12.44
2023-03-26T04:12:23.046Z,12.35
2023-03-26T04:15:24.915Z,12.30
2023-03-26T04:18:27.941Z,11.27
2023-03-26T04:21:33.945Z,11.70
2023-03-26T04:24:40.258Z,11.23
2023-03-26T04:27:43.429Z,10.50
2023-03-26T04:30:45.348Z,11.66
2023-03-26T04:33:47.277Z,10.54
2023-03-26T04:36:49.117Z,10.90
2023-03-26T04:39:50.992Z,10.83
2023-03-26T04:42:54.702Z,10.70
2023-03-26T04:45:56.835Z,11.15
2023-03-26T04:48:59.032Z,11.67
2023-03-26T04:52:00.929Z,11.22
2023-03-26T04:55:02.851Z,10.84
2023-03-26T04:58:05.617Z,10.40
2023-03-26T05:01:11.188Z,10.85
2023-03-26T05:04:13.644Z,11.14
2023-03-26T05:07:25.427Z,10.84
2023-03-26T05:10:27.325Z,10.98
2023-03-26T05:13:29.192Z,10.51
2023-03-26T05:16:31.922Z,11.30
2023-03-26T05:19:33.873Z,10.99
2023-03-26T05:22:38.130Z,11.19
2023-03-26T05:25:40.477Z,11.43
2023-03-26T05:28:42.346Z,11.47
2023-03-26T05:31:44.451Z,11.72
2023-03-26T05:34:46.268Z,12.22
2023-03-26T05:37:49.735Z,12.33
2023-03-26T05:40:51.609Z,13.63
2023-03-26T05:43:53.558Z,14.87
2023-03-26T05:46:55.406Z,15.20
2023-03-26T05:49:57.231Z,14.76
2023-03-26T05:52:59.089Z,15.09
2023-03-26T05:56:02.128Z,16.33
2023-03-26T05:59:04.030Z,16.30
2023-03-26T06:02:06.436Z,17.80
2023-03-26T06:05:09.888Z,19.09
2023-03-26T06:08:11.933Z,17.04
2023-03-26T06:11:13.847Z,17.74
2023-03-26T06:14:15.855Z,18.57
2023-03-26T06:17:18.036Z,17.64
2023-03-26T06:20:20.026Z,16.43
2023-03-26T06:23:23.259Z,17.85
2023-03-26T06:26:25.853Z,19.30
2023-03-26T06:29:27.764Z,18.53
2023-03-26T06:32:29.948Z,20.02
2023-03-26T06:35:32.162Z,20.14
2023-03-26T06:38:34.009Z,19.94
2023-03-26T06:41:35.952Z,19.85
2023-03-26T06:44:37.804Z,20.73
2023-03-26T06:47:39.628Z,21.27
2023-03-26T06:50:41.525Z,20.40
2023-03-26T06:53:43.461Z,18.40
2023-03-26T06:56:45.444Z,18.75
2023-03-26T06:59:47.392Z,17.93
2023-03-26T07:02:49.278Z,16.12
2023-03-26T07:05:51.273Z,17.40
2023-03-26T07:08:55.454Z,17.86
2023-03-26T07:11:57.520Z,17.36
2023-03-26T07:15:00.407Z,18.01
2023-03-26T07:18:02.446Z,18.59
2023-03-26T07:21:04.596Z,18.57
2023-03-26T07:24:06.777Z,20.06
2023-03-26T07:27:29.083Z,19.06
2023-03-26T07:30:46.306Z,20.04
2023-03-26T07:33:57.606Z,19.17
2023-03-26T07:37:02.346Z,19.76
2023-03-26T07:40:10.358Z,19.11
2023-03-26T07:43:19.021Z,21.17
2023-03-26T07:46:24.033Z,22.34
2023-03-26T07:49:27.362Z,20.83
2023-03-26T07:52:29.428Z,22.40
2023-03-26T07:55:31.605Z,23.36
2023-03-26T07:58:42.621Z,21.83
2023-03-26T08:02:14.193Z,20.45
2023-03-26T08:05:20.881Z,24.10
2023-03-26T08:08:43.533Z,23.54
2023-03-26T08:11:48.254Z,21.77
2023-03-26T08:14:53.225Z,19.57
2023-03-26T08:17:55.093Z,17.62
2023-03-26T08:21:01.243Z,18.56
2023-03-26T08:24:21.071Z,17.11
2023-03-26T08:27:23.683Z,17.04
2023-03-26T08:30:26.164Z,17.64
2023-03-26T08:33:28.120Z,16.13
2023-03-26T08:36:30.095Z,17.23
2023-03-26T08:39:32.271Z,17.97
2023-03-26T08:42:36.817Z,17.62
2023-03-26T08:45:57.124Z,17.48
2023-03-26T08:49:17.908Z,17.36
2023-03-26T08:52:24.629Z,17.29
2023-03-26T08:55:41.858Z,17.92
2023-03-26T08:59:01.951Z,17.75
2023-03-26T09:02:06.830Z,17.75
2023-03-26T09:05:19.528Z,17.97
2023-03-26T09:08:54.096Z,18.39
2023-03-26T09:11:56.474Z,19.15
2023-03-26T09:14:58.404Z,20.45
2023-03-26T09:18:06.642Z,19.73
2023-03-26T09:21:14.875Z,20.09
2023-03-26T09:24:27.832Z,21.15
2023-03-26T09:27:29.873Z,21.23
2023-03-26T09:30:31.768Z,20.58
2023-03-26T09:33:53.970Z,20.07
2023-03-26T09:36:57.220Z,19.19
2023-03-26T09:40:14.309Z,19.12
2023-03-26T09:43:16.436Z,19.07
2023-03-26T09:46:21.192Z,20.10
2023-03-26T09:49:31.889Z,20.68
2023-03-26T09:52:36.766Z,20.96
2023-03-26T09:55:43.347Z,21.33
2023-03-26T09:58:48.366Z,23.08
2023-03-26T10:01:56.519Z,23.77
2023-03-26T10:05:20.192Z,24.90
2023-03-26T10:08:33.831Z,25.01
2023-03-26T10:11:38.825Z,25.21
2023-03-26T10:14:40.657Z,24.20
2023-03-26T10:17:42.708Z,24.80
2023-03-26T10:20:44.580Z,22.94
2023-03-26T10:23:57.004Z,22.45
2023-03-26T10:27:10.788Z,20.84
2023-03-26T10:30:25.898Z,20.74
2023-03-26T10:33:27.739Z,20.21
2023-03-26T10:36:35.045Z,18.97
2023-03-26T10:39:55.986Z,17.48
2023-03-26T10:43:20.384Z,16.68
2023-03-26T10:46:29.775Z,15.70
2023-03-26T10:49:34.955Z,16.66
2023-03-26T10:52:36.853Z,17.55
2023-03-26T10:55:39.765Z,19.86
2023-03-26T10:58:48.462Z,20.96
2023-03-26T11:01:51.892Z,20.89
2023-03-26T11:04:53.870Z,19.82
2023-03-26T11:08:16.096Z,20.78
2023-03-26T11:11:17.920Z,20.85
2023-03-26T11:14:38.002Z,20.10
2023-03-26T11:17:55.592Z,19.43
2023-03-26T11:21:19.125Z,17.72
2023-03-26T11:24:22.240Z,19.16
2023-03-26T11:27:53.709Z,18.77
2023-03-26T11:30:59.449Z,20.08
2023-03-26T11:34:05.759Z,20.50
2023-03-26T11:37:12.569Z,19.13
2023-03-26T11:40:15.598Z,18.75
2023-03-26T11:43:19.044Z,19.01
2023-03-26T11:46:22.451Z,19.48
2023-03-26T11:49:24.444Z,20.53
2023-03-26T11:52:26.843Z,21.87
2023-03-26T11:55:28.789Z,22.92
2023-03-26T11:58:33.982Z,25.29
2023-03-26T12:01:52.015Z,24.28
2023-03-26T12:04:55.500Z,25.29
2023-03-26T12:08:01.162Z,26.73
2023-03-26T12:11:04.551Z,27.75
2023-03-26T12:14:06.506Z,24.65
2023-03-26T12:17:11.680Z,24.09
2023-03-26T12:20:39.656Z,22.26
2023-03-26T12:23:44.370Z,20.66
2023-03-26T12:26:46.434Z,24.45
2023-03-26T12:30:07.260Z,23.04
2023-03-26T12:33:16.431Z,20.47
2023-03-26T12:36:24.665Z,22.67
2023-03-26T12:40:06.738Z,25.86
2023-03-26T12:44:46.607Z,25.81
2023-03-26T12:47:58.926Z,27.48
2023-03-26T12:49:49.673Z,27.00
2023-03-26T12:53:02.456Z,26.32
2023-03-26T12:56:10.348Z,26.07
2023-03-26T12:59:24.268Z,25.28
2023-03-26T13:02:44.751Z,24.58
2023-03-26T13:06:02.846Z,26.15
2023-03-26T13:09:07.948Z,24.06
2023-03-26T13:12:28.546Z,23.08
2023-03-26T13:15:37.563Z,22.96
2023-03-26T13:18:45.668Z,22.04
2023-03-26T13:22:00.404Z,24.39
2023-03-26T13:25:07.703Z,25.50
2023-03-26T13:28:18.654Z,24.23
2023-03-26T13:31:32.742Z,24.79
2023-03-26T13:34:48.291Z,23.13
2023-03-26T13:38:08.548Z,22.41
2023-03-26T13:41:20.400Z,21.19
2023-03-26T13:44:25.363Z,21.72
2023-03-26T13:47:28.715Z,21.26
2023-03-26T13:50:31.065Z,21.01
2023-03-26T13:53:34.990Z,20.63
2023-03-26T13:56:39.726Z,20.92
2023-03-26T13:59:45.789Z,20.88
2023-03-26T14:02:56.360Z,20.82
2023-03-26T14:05:59.614Z,20.59
2023-03-26T14:09:10.970Z,20.53
2023-03-26T14:12:24.849Z,20.32
2023-03-26T14:15:44.080Z,20.20
2023-03-26T14:18:55.281Z,20.17
2023-03-26T14:22:13.991Z,20.38
2023-03-26T14:25:25.353Z,20.26
2023-03-26T14:28:47.298Z,19.75
2023-03-26T14:32:08.231Z,19.68
2023-03-26T14:35:16.594Z,19.46
2023-03-26T14:38:18.747Z,19.62
2023-03-26T14:41:43.926Z,20.16
2023-03-26T14:44:48.928Z,19.78
2023-03-26T14:47:51.482Z,19.43
2023-03-26T14:50:54.562Z,19.19
2023-03-26T14:53:59.272Z,19.58
2023-03-26T14:57:19.882Z,19.33
2023-03-26T15:00:40.782Z,19.14
2023-03-26T15:04:01.386Z,18.98
2023-03-26T15:07:22.284Z,19.10
2023-03-26T15:10:24.063Z,19.29
2023-03-26T15:13:42.103Z,19.34
2023-03-26T15:16:47.084Z,18.98
2023-03-26T15:19:51.798Z,18.91
2023-03-26T15:23:12.560Z,19.07
2023-03-26T15:26:41.714Z,19.02
2023-03-26T15:29:46.557Z,19.00
2023-03-26T15:32:57.222Z,18.88
2023-03-26T15:36:05.363Z,18.90
2023-03-26T15:39:16.361Z,18.67
2023-03-26T15:42:30.793Z,18.63
2023-03-26T15:45:32.682Z,18.69
2023-03-26T15:48:45.191Z,18.90
2023-03-26T15:51:53.157Z,18.58
2023-03-26T15:55:31.447Z,18.77
2023-03-26T15:58:51.975Z,18.26
2023-03-26T16:02:11.214Z,19.34
2023-03-26T16:05:32.241Z,18.43
2023-03-26T16:08:38.836Z,18.72
2023-03-26T16:11:54.876Z,18.62
2023-03-26T16:15:07.418Z,18.53
2023-03-26T16:18:10.265Z,18.67
2023-03-26T16:21:32.047Z,18.52
2023-03-26T16:24:42.416Z,18.02
2023-03-26T16:27:45.309Z,17.63
2023-03-26T16:31:00.372Z,17.72
2023-03-26T16:34:05.879Z,17.46
2023-03-26T16:37:26.720Z,17.42
2023-03-26T16:40:32.549Z,17.61
2023-03-26T16:43:39.679Z,17.83
2023-03-26T16:46:41.573Z,17.62
2023-03-26T16:50:12.865Z,17.83
2023-03-26T16:53:17.971Z,17.81
2023-03-26T16:56:31.965Z,17.46
2023-03-26T16:59:40.181Z,17.71
2023-03-26T17:02:48.120Z,17.70
2023-03-26T17:05:56.885Z,17.42
2023-03-26T17:09:09.349Z,17.21
2023-03-26T17:12:21.645Z,17.38
2023-03-26T17:15:29.880Z,16.93
2023-03-26T17:19:07.483Z,17.09
2023-03-26T17:22:11.581Z,17.09
2023-03-26T17:25:43.015Z,17.14
2023-03-26T17:29:03.580Z,17.09
2023-03-26T17:32:15.498Z,16.31
2023-03-26T17:35:17.435Z,17.23
2023-03-26T17:38:22.677Z,16.90
2023-03-26T17:41:43.510Z,17.31
2023-03-26T17:44:55.666Z,17.05
2023-03-26T17:48:02.417Z,17.36
2023-03-26T17:51:06.649Z,17.13
2023-03-26T17:54:28.880Z,16.90
2023-03-26T17:57:40.264Z,16.95
2023-03-26T18:00:42.798Z,16.99
2023-03-26T18:03:49.684Z,16.97
2023-03-26T18:06:55.724Z,17.27
2023-03-26T18:10:13.018Z,17.44
2023-03-26T18:13:21.103Z,17.24
2023-03-26T18:16:29.170Z,17.28
2023-03-26T18:19:32.102Z,17.03
2023-03-26T18:22:34.142Z,17.15
2023-03-26T18:25:35.983Z,17.05
2023-03-26T18:28:41.763Z,17.41
2023-03-26T18:31:43.903Z,17.42
2023-03-26T18:34:50.209Z,17.22
2023-03-26T18:37:53.434Z,17.11
2023-03-26T18:40:55.522Z,16.99
2023-03-26T18:44:01.435Z,17.26
2023-03-26T18:47:07.160Z,15.78
2023-03-26T18:50:13.995Z,16.24
2023-03-26T18:53:17.131Z,17.42
2023-03-26T18:56:39.508Z,17.31
2023-03-26T18:59:43.828Z,17.36
2023-03-26T19:02:46.637Z,17.08
2023-03-26T19:05:48.586Z,17.12
2023-03-26T19:08:50.578Z,17.11
2023-03-26T19:12:16.126Z,17.36
2023-03-26T19:15:18.031Z,17.29
2023-03-26T19:18:21.071Z,17.24
2023-03-26T19:21:23.464Z,16.60
2023-03-26T19:24:25.670Z,16.64
2023-03-26T19:27:27.540Z,16.34
2023-03-26T19:30:30.894Z,16.84
2023-03-26T19:33:34.015Z,16.38
2023-03-26T19:36:37.048Z,16.66
2023-03-26T19:40:01.584Z,17.35
2023-03-26T19:43:04.523Z,16.85
2023-03-26T19:46:07.401Z,16.99
2023-03-26T19:49:22.303Z,15.72
2023-03-26T19:52:34.284Z,15.67
2023-03-26T19:55:36.413Z,16.89
2023-03-26T19:58:38.836Z,16.91
2023-03-26T20:01:40.777Z,17.11
2023-03-26T20:04:43.000Z,17.04
2023-03-26T20:07:45.007Z,15.95
2023-03-26T20:10:46.957Z,16.08
2023-03-26T20:13:49.289Z,16.10
2023-03-26T20:16:51.262Z,16.64
2023-03-26T20:19:54.253Z,16.97
2023-03-26T20:22:56.174Z,16.38
2023-03-26T20:25:58.262Z,16.43
2023-03-26T20:29:00.245Z,16.48
2023-03-26T20:32:06.338Z,16.50
2023-03-26T20:35:15.158Z,16.33
2023-03-26T20:38:18.229Z,15.25
2023-03-26T20:41:22.896Z,15.41
2023-03-26T20:44:26.833Z,15.37
2023-03-26T20:47:28.758Z,15.24
2023-03-26T20:50:31.609Z,15.96
2023-03-26T20:53:33.596Z,15.64
2023-03-26T20:56:37.759Z,15.22
2023-03-26T20:59:39.804Z,15.85
2023-03-26T21:02:43.279Z,16.78
2023-03-26T21:05:48.405Z,16.47
2023-03-26T21:08:50.445Z,16.18
2023-03-26T21:11:52.361Z,15.96
2023-03-26T21:14:55.739Z,15.21
2023-03-26T21:17:58.229Z,15.68
2023-03-26T21:21:20.013Z,15.38
2023-03-26T21:24:29.706Z,15.89
2023-03-26T21:27:47.680Z,15.04
2023-03-26T21:30:51.029Z,16.02
2023-03-26T21:33:53.018Z,15.80
2023-03-26T21:36:55.014Z,14.61
2023-03-26T21:39:57.251Z,14.98
2023-03-26T21:42:59.345Z,14.93
2023-03-26T21:46:01.457Z,15.76
2023-03-26T21:49:03.673Z,15.69
2023-03-26T21:52:05.778Z,14.64
2023-03-26T21:55:09.250Z,14.92
2023-03-26T21:58:21.106Z,15.04
2023-03-26T22:01:39.091Z,14.68
2023-03-26T22:04:48.883Z,14.72
2023-03-26T22:07:50.907Z,13.87
2023-03-26T22:10:52.905Z,14.70
2023-03-26T22:13:56.804Z,14.43
2023-03-26T22:16:58.667Z,14.65
2023-03-26T22:20:01.555Z,13.93
2023-03-26T22:23:03.455Z,13.55
2023-03-26T22:26:05.943Z,14.07
2023-03-26T22:29:08.230Z,13.78
2023-03-26T22:32:10.247Z,14.54
2023-03-26T22:35:12.919Z,14.39
2023-03-26T22:38:16.967Z,14.87
2023-03-26T22:41:18.854Z,14.87
2023-03-26T22:44:20.827Z,14.74
2023-03-26T22:47:22.860Z,15.13
2023-03-26T22:50:24.773Z,14.15
2023-03-26T22:53:26.654Z,14.72
2023-03-26T22:56:28.577Z,13.32
2023-03-26T22:59:30.435Z,14.58
2023-03-26T23:02:32.328Z,14.02
2023-03-26T23:05:34.721Z,13.80
2023-03-26T23:08:38.087Z,13.53
2023-03-26T23:11:40.082Z,12.94
2023-03-26T23:14:41.914Z,13.90
2023-03-26T23:17:43.741Z,13.72
2023-03-26T23:20:52.748Z,13.70
2023-03-26T23:23:54.644Z,14.70
2023-03-26T23:26:56.559Z,14.05
2023-03-26T23:29:58.586Z,13.16
2023-03-26T23:33:01.722Z,13.57
2023-03-26T23:36:08.816Z,13.97
2023-03-26T23:39:10.931Z,14.45
2023-03-26T23:42:12.820Z,13.51
2023-03-26T23:45:14.794Z,13.11
2023-03-26T23:48:17.517Z,12.98
2023-03-26T23:51:22.447Z,12.74
2023-03-26T23:54:25.678Z,12.41
2023-03-26T23:57:27.574Z,12.26
